createdAt,value
2019-03-13T00:02:19.622Z,98933.95
2019-03-13T00:04:48.894Z,98930.00
2019-03-13T00:07:17.907Z,98934.04
2019-03-13T00:09:46.890Z,98943.25
2019-03-13T00:12:15.970Z,98945.98
2019-03-13T00:14:44.956Z,98954.34
2019-03-13T00:17:13.943Z,98945.31
2019-03-13T00:19:42.923Z,98964.60
2019-03-13T00:22:12.749Z,98966.10
2019-03-13T00:24:41.744Z,98963.47
2019-03-13T00:27:10.749Z,98976.27
2019-03-13T00:29:40.031Z,98975.41
2019-03-13T00:32:12.239Z,98983.31
2019-03-13T00:34:41.136Z,98994.80
2019-03-13T00:37:10.097Z,98991.39
2019-03-13T00:39:38.971Z,98996.84
2019-03-13T00:42:08.127Z,99014.41
2019-03-13T00:44:37.089Z,99019.86
2019-03-13T00:47:06.117Z,99027.84
2019-03-13T00:49:35.182Z,99031.80
2019-03-13T00:52:04.082Z,99033.97
2019-03-13T00:54:33.097Z,99035.84
2019-03-13T00:57:02.090Z,99037.64
2019-03-13T00:59:31.102Z,99041.19
2019-03-13T01:02:31.240Z,99046.09
2019-03-13T01:05:13.091Z,99048.81
2019-03-13T01:07:42.158Z,99050.67
2019-03-13T01:10:11.140Z,99057.66
2019-03-13T01:12:40.127Z,99055.11
2019-03-13T01:15:09.266Z,99062.06
2019-03-13T01:17:39.124Z,99063.92
2019-03-13T01:20:08.396Z,99068.81
2019-03-13T01:22:37.396Z,99065.81
2019-03-13T01:25:07.260Z,99068.45
2019-03-13T01:27:36.095Z,99079.44
2019-03-13T01:30:06.001Z,99073.39
2019-03-13T01:32:50.352Z,99064.67
2019-03-13T01:35:25.740Z,99074.80
2019-03-13T01:37:54.605Z,99062.13
2019-03-13T01:40:23.487Z,99056.95
2019-03-13T01:42:52.393Z,99065.76
2019-03-13T01:45:21.493Z,99076.69
2019-03-13T01:47:50.452Z,99060.89
2019-03-13T01:50:19.478Z,99063.98
2019-03-13T01:52:48.591Z,99063.62
2019-03-13T01:55:17.516Z,99068.48
2019-03-13T01:57:46.571Z,99074.77
2019-03-13T02:00:15.765Z,99068.19
2019-03-13T02:02:44.610Z,99073.83
2019-03-13T02:05:13.487Z,99071.28
2019-03-13T02:07:42.361Z,99068.73
2019-03-13T02:10:11.483Z,99072.77
2019-03-13T02:12:40.559Z,99072.77
2019-03-13T02:15:10.335Z,99086.42
2019-03-13T02:17:39.226Z,99086.02
2019-03-13T02:20:08.675Z,99084.33
2019-03-13T02:22:37.611Z,99087.05
2019-03-13T02:25:06.771Z,99087.05
2019-03-13T02:27:35.719Z,99084.88
2019-03-13T02:30:05.187Z,99091.08
2019-03-13T02:32:34.194Z,99079.33
2019-03-13T02:35:03.240Z,99065.42
2019-03-13T02:37:32.310Z,99071.80
2019-03-13T02:40:01.473Z,99073.31
2019-03-13T02:42:30.775Z,99072.83
2019-03-13T02:44:59.814Z,99055.81
2019-03-13T02:47:28.759Z,99066.33
2019-03-13T02:49:57.708Z,99064.94
2019-03-13T02:52:26.549Z,99058.44
2019-03-13T02:54:55.426Z,99052.34
2019-03-13T02:57:24.268Z,99053.75
2019-03-13T02:59:53.133Z,99054.66
2019-03-13T03:02:41.718Z,99045.08
2019-03-13T03:05:10.620Z,99045.54
2019-03-13T03:07:39.727Z,99044.71
2019-03-13T03:10:09.990Z,99044.22
2019-03-13T03:12:39.062Z,99039.91
2019-03-13T03:15:14.172Z,99041.77
2019-03-13T03:17:43.008Z,99038.67
2019-03-13T03:20:14.267Z,99038.67
2019-03-13T03:22:43.197Z,99038.30
2019-03-13T03:25:12.842Z,99043.56
2019-03-13T03:27:41.777Z,99050.23
2019-03-13T03:30:14.100Z,99043.66
2019-03-13T03:32:43.220Z,99047.20
2019-03-13T03:35:12.149Z,99050.77
2019-03-13T03:37:41.186Z,99043.82
2019-03-13T03:40:11.666Z,99050.41
2019-03-13T03:42:40.648Z,99047.77
2019-03-13T03:45:09.674Z,99053.48
2019-03-13T03:47:38.682Z,99053.48
2019-03-13T03:50:09.250Z,99048.68
2019-03-13T03:52:38.192Z,99050.94
2019-03-13T03:55:07.312Z,99047.53
2019-03-13T03:57:36.161Z,99051.53
2019-03-13T04:00:06.213Z,99057.69
2019-03-13T04:02:35.171Z,99056.37
2019-03-13T04:05:04.498Z,99066.90
2019-03-13T04:07:33.294Z,99063.86
2019-03-13T04:10:02.258Z,99067.32
2019-03-13T04:12:31.289Z,99073.52
2019-03-13T04:15:00.484Z,99062.63
2019-03-13T04:17:29.409Z,99071.06
2019-03-13T04:19:58.334Z,99060.91
2019-03-13T04:22:27.379Z,99082.45
2019-03-13T04:25:12.716Z,99069.75
2019-03-13T04:27:41.538Z,99067.57
2019-03-13T04:30:11.102Z,99067.20
2019-03-13T04:32:40.245Z,99058.36
2019-03-13T04:35:09.239Z,99062.88
2019-03-13T04:37:38.384Z,99052.90
2019-03-13T04:40:07.541Z,99063.87
2019-03-13T04:42:36.505Z,99059.56
2019-03-13T04:45:05.539Z,99068.69
2019-03-13T04:47:34.578Z,99069.55
2019-03-13T04:50:03.581Z,99070.08
2019-03-13T04:52:32.517Z,99066.59
2019-03-13T04:55:01.539Z,99080.15
2019-03-13T04:57:30.634Z,99066.14
2019-03-13T04:59:59.557Z,99067.08
2019-03-13T05:02:28.527Z,99064.98
2019-03-13T05:04:58.475Z,99062.81
2019-03-13T05:07:27.296Z,99064.98
2019-03-13T05:09:56.160Z,99071.11
2019-03-13T05:12:25.138Z,99071.11
2019-03-13T05:14:54.084Z,99074.20
2019-03-13T05:17:23.115Z,99075.05
2019-03-13T05:19:52.122Z,99072.80
2019-03-13T05:22:21.274Z,99067.91
2019-03-13T05:24:50.086Z,99062.11
2019-03-13T05:27:19.117Z,99059.84
2019-03-13T05:29:48.099Z,99052.19
2019-03-13T05:32:17.194Z,99066.00
2019-03-13T05:34:46.210Z,99059.78
2019-03-13T05:37:15.322Z,99070.59
2019-03-13T05:39:44.201Z,99061.67
2019-03-13T05:42:13.077Z,99067.33
2019-03-13T05:44:41.884Z,99052.61
2019-03-13T05:47:10.901Z,99071.31
2019-03-13T05:49:39.835Z,99069.45
2019-03-13T05:52:08.884Z,99065.80
2019-03-13T05:54:37.873Z,99060.44
2019-03-13T05:57:06.805Z,99073.44
2019-03-13T05:59:35.892Z,99071.08
2019-03-13T06:02:04.898Z,99074.41
2019-03-13T06:04:33.870Z,99069.97
2019-03-13T06:09:50.740Z,99073.20
2019-03-13T06:12:19.913Z,99074.43
2019-03-13T06:14:48.997Z,99077.44
2019-03-13T06:17:17.993Z,99057.60
2019-03-13T06:19:47.127Z,99069.77
2019-03-13T06:22:16.154Z,99074.95
2019-03-13T06:24:45.139Z,99072.59
2019-03-13T06:27:14.088Z,99075.14
2019-03-13T06:29:42.922Z,99072.42
2019-03-13T06:32:12.010Z,99074.88
2019-03-13T06:34:40.930Z,99078.83
2019-03-13T06:37:10.102Z,99078.83
2019-03-13T06:39:39.131Z,99076.97
2019-03-13T06:42:08.097Z,99075.08
2019-03-13T06:44:37.843Z,99077.62
2019-03-13T06:47:07.641Z,99073.98
2019-03-13T06:49:37.304Z,99073.83
2019-03-13T06:52:06.212Z,99074.53
2019-03-13T06:54:35.181Z,99067.71
2019-03-13T06:57:04.272Z,99077.53
2019-03-13T06:59:53.261Z,99065.48
2019-03-13T07:02:41.252Z,99082.84
2019-03-13T07:05:22.792Z,99076.91
2019-03-13T07:08:05.135Z,99086.05
2019-03-13T07:10:51.686Z,99079.20
2019-03-13T07:13:36.296Z,99069.33
2019-03-13T07:16:26.986Z,99072.51
2019-03-13T07:19:29.888Z,99067.91
2019-03-13T07:22:22.592Z,99073.55
2019-03-13T07:25:08.310Z,99067.25
2019-03-13T07:28:02.039Z,99061.10
2019-03-13T07:30:39.406Z,99053.19
2019-03-13T07:33:45.526Z,99056.02
2019-03-13T07:36:27.509Z,99060.05
2019-03-13T07:39:07.511Z,99051.30
2019-03-13T07:41:55.516Z,99054.77
2019-03-13T07:44:52.741Z,99047.32
2019-03-13T07:47:40.683Z,99033.07
2019-03-13T07:50:34.570Z,99029.11
2019-03-13T07:53:40.279Z,99030.63
2019-03-13T07:56:31.602Z,99027.06
2019-03-13T07:59:11.520Z,99034.52
2019-03-13T08:02:17.752Z,99028.11
2019-03-13T08:05:04.222Z,99017.19
2019-03-13T08:07:50.697Z,99018.02
2019-03-13T08:10:34.964Z,99023.00
2019-03-13T08:13:23.074Z,99027.65
2019-03-13T08:16:09.603Z,99019.43
2019-03-13T08:18:46.620Z,99034.44
2019-03-13T08:21:39.624Z,99016.89
2019-03-13T08:24:24.329Z,99020.12
2019-03-13T08:27:15.341Z,99023.68
2019-03-13T08:30:06.610Z,99016.45
2019-03-13T08:32:54.703Z,99016.91
2019-03-13T08:35:35.455Z,99025.49
2019-03-13T08:38:26.754Z,99014.27
2019-03-13T08:41:12.689Z,99007.77
2019-03-13T08:43:50.725Z,99012.00
2019-03-13T08:46:30.673Z,98999.09
2019-03-13T08:49:21.103Z,99017.01
2019-03-13T08:52:07.730Z,99008.63
2019-03-13T08:54:50.993Z,99009.95
2019-03-13T08:57:25.785Z,99004.58
2019-03-13T09:00:13.682Z,99005.80
2019-03-13T09:03:00.368Z,98996.73
2019-03-13T09:06:06.400Z,99011.34
2019-03-13T09:08:54.299Z,98992.51
2019-03-13T09:11:38.957Z,98992.02
2019-03-13T09:14:14.945Z,99007.66
2019-03-13T09:16:53.345Z,98990.60
2019-03-13T09:19:53.596Z,98993.34
2019-03-13T09:22:41.610Z,98987.56
2019-03-13T09:25:28.185Z,98988.69
2019-03-13T09:28:21.701Z,98996.31
2019-03-13T09:31:06.312Z,98993.77
2019-03-13T09:33:43.665Z,98984.07
2019-03-13T09:36:30.481Z,98993.87
2019-03-13T09:39:11.212Z,98998.39
2019-03-13T09:42:03.275Z,98996.70
2019-03-13T09:44:57.553Z,98996.70
2019-03-13T09:47:51.408Z,99002.19
2019-03-13T09:50:26.026Z,98991.12
2019-03-13T09:53:16.622Z,98997.83
2019-03-13T09:55:59.463Z,98985.27
2019-03-13T09:58:41.815Z,98977.14
2019-03-13T10:01:28.557Z,98978.86
2019-03-13T10:04:16.493Z,98969.88
2019-03-13T10:07:10.327Z,98977.60
2019-03-13T10:10:16.143Z,98964.40
2019-03-13T10:13:07.116Z,98963.28
2019-03-13T10:16:04.269Z,98969.42
2019-03-13T10:18:39.549Z,98978.20
2019-03-13T10:21:36.305Z,98966.35
2019-03-13T10:24:39.438Z,98963.61
2019-03-13T10:27:16.000Z,98979.81
2019-03-13T10:29:50.670Z,98953.52
2019-03-13T10:32:26.607Z,98966.16
2019-03-13T10:35:01.478Z,98961.23
2019-03-13T10:37:55.282Z,98943.52
2019-03-13T10:40:43.278Z,98955.66
2019-03-13T10:43:37.054Z,98942.82
2019-03-13T10:46:31.018Z,98952.36
2019-03-13T10:49:22.171Z,98955.20
2019-03-13T10:52:17.464Z,98963.61
2019-03-13T10:55:14.157Z,98945.50
2019-03-13T10:58:02.208Z,98961.70
2019-03-13T11:00:56.048Z,98946.72
2019-03-13T11:03:43.937Z,98956.22
2019-03-13T11:06:54.421Z,98942.72
2019-03-13T11:09:38.414Z,98948.70
2019-03-13T11:12:26.814Z,98945.66
2019-03-13T11:15:16.222Z,98942.82
2019-03-13T11:18:10.329Z,98942.72
2019-03-13T11:20:56.498Z,98946.88
2019-03-13T11:23:50.265Z,98946.16
2019-03-13T11:26:40.947Z,98932.66
2019-03-13T11:29:43.863Z,98943.62
2019-03-13T11:32:22.006Z,98943.02
2019-03-13T11:35:21.986Z,98966.12
2019-03-13T11:38:08.788Z,98951.84
2019-03-13T11:40:56.663Z,98948.58
2019-03-13T11:43:47.281Z,98958.11
2019-03-13T11:46:25.403Z,98948.38
2019-03-13T11:49:12.138Z,98932.08
2019-03-13T11:52:00.103Z,98933.10
2019-03-13T11:54:46.950Z,98929.70
2019-03-13T11:57:21.686Z,98933.96
2019-03-13T12:00:08.471Z,98937.92
2019-03-13T12:02:55.134Z,98942.34
2019-03-13T12:05:41.035Z,98929.60
2019-03-13T12:08:43.491Z,98942.59
2019-03-13T12:11:22.730Z,98935.04
2019-03-13T12:14:09.428Z,98927.59
2019-03-13T12:16:50.177Z,98926.66
2019-03-13T12:19:44.071Z,98923.92
2019-03-13T12:22:31.679Z,98925.70
2019-03-13T12:25:28.480Z,98924.28
2019-03-13T12:28:03.327Z,98910.13
2019-03-13T12:30:38.814Z,98898.23
2019-03-13T12:33:18.043Z,98907.58
2019-03-13T12:36:05.976Z,98908.14
2019-03-13T12:38:41.212Z,98901.44
2019-03-13T12:41:29.337Z,98899.36
2019-03-13T12:44:17.100Z,98899.77
2019-03-13T12:46:59.236Z,98883.73
2019-03-13T12:49:34.897Z,98902.70
2019-03-13T12:52:25.686Z,98874.59
2019-03-13T12:55:05.458Z,98879.52
2019-03-13T12:57:47.420Z,98867.53
2019-03-13T13:00:37.755Z,98860.47
2019-03-13T13:03:23.979Z,98853.02
2019-03-13T13:06:14.660Z,98842.92
2019-03-13T13:09:14.821Z,98844.63
2019-03-13T13:12:01.387Z,98845.09
2019-03-13T13:15:07.251Z,98845.30
2019-03-13T13:17:53.017Z,98843.52
2019-03-13T13:20:24.044Z,98842.66
2019-03-13T13:22:52.715Z,98838.34
2019-03-13T13:25:21.567Z,98828.61
2019-03-13T13:27:50.561Z,98839.16
2019-03-13T13:30:19.500Z,98833.89
2019-03-13T13:32:48.528Z,98826.62
2019-03-13T13:35:38.055Z,98832.75
2019-03-13T13:38:10.102Z,98831.33
2019-03-13T13:40:37.785Z,98820.07
2019-03-13T13:43:06.795Z,98811.79
2019-03-13T13:45:41.348Z,98814.69
2019-03-13T13:48:10.278Z,98813.97
2019-03-13T13:50:39.200Z,98819.71
2019-03-13T13:53:08.077Z,98831.23
2019-03-13T13:55:37.158Z,98820.83
2019-03-13T13:58:06.193Z,98816.11
2019-03-13T14:00:35.265Z,98803.12
2019-03-13T14:03:04.228Z,98818.85
2019-03-13T14:05:33.220Z,98821.49
2019-03-13T14:08:02.263Z,98817.07
2019-03-13T14:10:31.249Z,98826.47
2019-03-13T14:13:00.304Z,98826.00
2019-03-13T14:15:29.279Z,98817.07
2019-03-13T14:18:00.190Z,98813.01
2019-03-13T14:20:29.085Z,98815.49
2019-03-13T14:22:58.307Z,98814.17
2019-03-13T14:25:27.280Z,98811.25
2019-03-13T14:27:56.339Z,98798.64
2019-03-13T14:30:25.403Z,98810.13
2019-03-13T14:32:54.321Z,98815.91
2019-03-13T14:35:23.326Z,98820.69
2019-03-13T14:37:52.261Z,98812.56
2019-03-13T14:40:21.377Z,98815.95
2019-03-13T14:42:50.429Z,98811.25
2019-03-13T14:45:19.351Z,98825.77
2019-03-13T14:47:48.400Z,98828.50
2019-03-13T14:50:17.437Z,98828.90
2019-03-13T14:52:46.329Z,98827.19
2019-03-13T14:55:15.411Z,98825.30
2019-03-13T14:57:44.391Z,98839.15
2019-03-13T15:00:15.381Z,98840.28
2019-03-13T15:02:44.166Z,98837.38
2019-03-13T15:05:13.031Z,98829.82
2019-03-13T15:07:42.002Z,98826.36
2019-03-13T15:10:12.021Z,98837.38
2019-03-13T15:12:43.106Z,98833.32
2019-03-13T15:15:12.596Z,98834.17
2019-03-13T15:17:41.586Z,98831.04
2019-03-13T15:20:13.070Z,98835.86
2019-03-13T15:22:42.050Z,98827.58
2019-03-13T15:25:11.640Z,98827.94
2019-03-13T15:27:40.752Z,98831.90
2019-03-13T15:30:15.914Z,98828.90
2019-03-13T15:32:44.783Z,98840.38
2019-03-13T15:35:13.677Z,98825.14
2019-03-13T15:37:42.648Z,98820.80
2019-03-13T15:40:13.574Z,98818.05
2019-03-13T15:42:42.702Z,98828.50
2019-03-13T15:45:13.909Z,98830.31
2019-03-13T15:47:42.810Z,98828.40
2019-03-13T15:50:12.796Z,98813.06
2019-03-13T15:52:41.699Z,98803.52
2019-03-13T15:55:11.709Z,98803.52
2019-03-13T15:57:40.802Z,98812.46
2019-03-13T16:00:16.419Z,98815.09
2019-03-13T16:02:45.407Z,98808.30
2019-03-13T16:05:14.250Z,98805.30
2019-03-13T16:07:43.216Z,98803.22
2019-03-13T16:10:12.818Z,98798.91
2019-03-13T16:12:41.870Z,98805.14
2019-03-13T16:15:16.134Z,98801.19
2019-03-13T16:17:45.052Z,98804.85
2019-03-13T16:20:14.630Z,98802.81
2019-03-13T16:22:45.626Z,98810.34
2019-03-13T16:25:14.798Z,98802.16
2019-03-13T16:27:43.910Z,98812.82
2019-03-13T16:30:15.885Z,98801.41
2019-03-13T16:32:44.969Z,98832.72
2019-03-13T16:35:13.900Z,98820.09
2019-03-13T16:37:42.950Z,98827.08
2019-03-13T16:40:13.299Z,98824.14
2019-03-13T16:42:41.447Z,98833.48
2019-03-13T16:45:11.100Z,98821.81
2019-03-13T16:47:39.986Z,98812.68
2019-03-13T16:50:11.259Z,98826.73
2019-03-13T16:52:40.064Z,98821.09
2019-03-13T16:55:10.998Z,98822.02
2019-03-13T16:57:40.021Z,98837.48
2019-03-13T17:00:12.586Z,98834.48
2019-03-13T17:02:41.715Z,98845.50
2019-03-13T17:05:11.546Z,98839.97
2019-03-13T17:07:40.570Z,98844.38
2019-03-13T17:10:11.096Z,98837.89
2019-03-13T17:12:40.091Z,98838.35
2019-03-13T17:15:11.668Z,98830.53
2019-03-13T17:17:40.803Z,98835.45
2019-03-13T17:20:13.095Z,98840.83
2019-03-13T17:22:43.496Z,98855.80
2019-03-13T17:25:13.714Z,98847.16
2019-03-13T17:27:42.845Z,98838.39
2019-03-13T17:30:14.940Z,98839.81
2019-03-13T17:32:43.867Z,98847.36
2019-03-13T17:35:12.737Z,98832.85
2019-03-13T17:37:41.718Z,98838.23
2019-03-13T17:40:12.673Z,98846.24
2019-03-13T17:42:41.649Z,98841.80
2019-03-13T17:45:12.620Z,98839.64
2019-03-13T17:47:41.493Z,98838.43
2019-03-13T17:50:12.314Z,98847.86
2019-03-13T17:52:41.300Z,98844.37
2019-03-13T17:55:10.343Z,98839.66
2019-03-13T17:57:39.310Z,98819.87
2019-03-13T18:00:12.194Z,98840.67
2019-03-13T18:02:41.247Z,98839.36
2019-03-13T18:05:10.412Z,98827.23
2019-03-13T18:07:39.358Z,98835.14
2019-03-13T18:10:10.425Z,98837.02
2019-03-13T18:12:39.313Z,98843.25
2019-03-13T18:15:08.395Z,98838.89
2019-03-13T18:17:37.322Z,98845.48
2019-03-13T18:20:07.942Z,98842.85
2019-03-13T18:22:36.810Z,98830.26
2019-03-13T18:25:06.120Z,98841.27
2019-03-13T18:27:35.127Z,98839.19
2019-03-13T18:30:04.477Z,98848.91
2019-03-13T18:32:41.675Z,98854.75
2019-03-13T18:35:04.512Z,98864.34
2019-03-13T18:37:33.622Z,98876.70
2019-03-13T18:40:02.574Z,98868.89
2019-03-13T18:42:31.521Z,98859.75
2019-03-13T18:45:19.581Z,98869.55
2019-03-13T18:47:48.537Z,98879.72
2019-03-13T18:50:17.577Z,98874.16
2019-03-13T18:52:46.568Z,98872.02
2019-03-13T18:55:36.973Z,98870.69
2019-03-13T18:58:05.021Z,98890.16
2019-03-13T19:00:34.300Z,98893.39
2019-03-13T19:03:03.322Z,98899.12
2019-03-13T19:05:32.311Z,98914.08
2019-03-13T19:08:01.625Z,98911.84
2019-03-13T19:10:30.713Z,98907.98
2019-03-13T19:12:59.771Z,98915.03
2019-03-13T19:15:28.693Z,98934.05
2019-03-13T19:18:00.481Z,98920.86
2019-03-13T19:20:28.497Z,98924.91
2019-03-13T19:22:57.753Z,98935.55
2019-03-13T19:25:26.685Z,98939.60
2019-03-13T19:27:55.656Z,98940.92
2019-03-13T19:30:26.726Z,98938.38
2019-03-13T19:32:55.846Z,98930.97
2019-03-13T19:35:24.823Z,98947.33
2019-03-13T19:37:54.096Z,98936.89
2019-03-13T19:40:23.036Z,98938.66
2019-03-13T19:42:51.923Z,98930.39
2019-03-13T19:45:23.852Z,98936.98
2019-03-13T19:48:11.920Z,98946.66
2019-03-13T19:50:40.968Z,98947.61
2019-03-13T19:53:09.880Z,98951.57
2019-03-13T19:55:38.927Z,98958.62
2019-03-13T19:58:07.893Z,98955.62
2019-03-13T20:00:36.905Z,98961.84
2019-03-13T20:03:06.824Z,98958.34
2019-03-13T20:05:45.486Z,98962.84
2019-03-13T20:08:06.915Z,98979.25
2019-03-13T20:10:35.757Z,98982.80
2019-03-13T20:13:04.901Z,98985.07
2019-03-13T20:15:34.010Z,98992.98
2019-03-13T20:18:03.080Z,98993.44
2019-03-13T20:20:33.007Z,98994.39
2019-03-13T20:23:02.451Z,98994.48
2019-03-13T20:25:31.457Z,99000.30
2019-03-13T20:28:00.317Z,98997.66
2019-03-13T20:30:29.123Z,99001.16
2019-03-13T20:32:57.988Z,98998.61
2019-03-13T20:35:26.783Z,98995.13
2019-03-13T20:37:55.797Z,98992.21
2019-03-13T20:40:24.765Z,98993.89
2019-03-13T20:42:54.010Z,98997.94
2019-03-13T20:45:23.195Z,99001.06
2019-03-13T20:47:52.210Z,99012.52
2019-03-13T20:50:21.045Z,99013.84
2019-03-13T20:52:49.864Z,99014.42
2019-03-13T20:55:19.072Z,99009.61
2019-03-13T20:57:48.002Z,99013.28
2019-03-13T21:00:19.700Z,99030.01
2019-03-13T21:02:48.715Z,99045.81
2019-03-13T21:05:17.775Z,99030.96
2019-03-13T21:07:46.827Z,99040.18
2019-03-13T21:10:15.789Z,99043.77
2019-03-13T21:12:44.845Z,99042.91
2019-03-13T21:15:14.418Z,99045.08
2019-03-13T21:17:43.379Z,99050.90
2019-03-13T21:20:13.405Z,99039.50
2019-03-13T21:22:42.343Z,99043.55
2019-03-13T21:25:11.864Z,99040.91
2019-03-13T21:27:40.890Z,99052.39
2019-03-13T21:30:15.067Z,99056.34
2019-03-13T21:32:44.082Z,99056.44
2019-03-13T21:35:13.420Z,99059.52
2019-03-13T21:37:42.457Z,99059.62
2019-03-13T21:40:12.368Z,99068.01
2019-03-13T21:42:41.419Z,99067.15
2019-03-13T21:45:21.754Z,99073.27
2019-03-13T21:47:41.232Z,99083.41
2019-03-13T21:50:29.621Z,99083.04
2019-03-13T21:52:58.538Z,99080.03
2019-03-13T21:55:27.980Z,99080.59
2019-03-13T21:57:57.623Z,99084.16
2019-03-13T22:00:26.631Z,99088.12
2019-03-13T22:02:55.585Z,99089.03
2019-03-13T22:05:26.577Z,99090.44
2019-03-13T22:07:55.598Z,99103.14
2019-03-13T22:10:24.602Z,99108.87
2019-03-13T22:12:53.507Z,99108.05
2019-03-13T22:15:22.523Z,99117.72
2019-03-13T22:17:51.408Z,99108.13
2019-03-13T22:20:20.700Z,99113.86
2019-03-13T22:22:49.629Z,99117.03
2019-03-13T22:27:52.666Z,99132.37
2019-03-13T22:30:40.697Z,99129.83
2019-03-13T22:33:09.625Z,99133.87
2019-03-13T22:35:38.508Z,99131.60
2019-03-13T22:38:07.513Z,99144.77
2019-03-13T22:40:36.441Z,99134.91
2019-03-13T22:43:05.628Z,99147.66
2019-03-13T22:45:34.573Z,99139.39
2019-03-13T22:48:03.482Z,99146.34
2019-03-13T22:50:32.745Z,99145.61
2019-03-13T22:53:01.595Z,99153.88
2019-03-13T22:55:30.521Z,99159.59
2019-03-13T22:58:01.535Z,99166.27
2019-03-13T23:00:51.307Z,99178.61
2019-03-13T23:03:20.642Z,99169.48
2019-03-13T23:05:49.577Z,99184.41
2019-03-13T23:08:18.590Z,99182.23
2019-03-13T23:10:47.859Z,99190.70
2019-03-13T23:13:17.604Z,99187.59
2019-03-13T23:15:47.016Z,99185.44
2019-03-13T23:18:18.185Z,99198.20
2019-03-13T23:20:46.471Z,99197.38
2019-03-13T23:23:15.454Z,99204.41
2019-03-13T23:25:44.696Z,99210.13
2019-03-13T23:28:13.526Z,99217.20
2019-03-13T23:30:42.458Z,99214.66
2019-03-13T23:33:11.466Z,99218.98
2019-03-13T23:35:40.786Z,99218.69
2019-03-13T23:38:09.823Z,99223.55
2019-03-13T23:40:38.903Z,99230.99
2019-03-13T23:43:27.145Z,99229.67
2019-03-13T23:45:56.182Z,99235.02
2019-03-13T23:48:25.175Z,99233.70
2019-03-13T23:50:54.093Z,99249.50
2019-03-13T23:53:22.888Z,99238.59
2019-03-13T23:55:51.905Z,99257.94
2019-03-13T23:58:20.918Z,99276.77
